sensor_id;sensor_type;location;lat;lon;timestamp;pressure;altitude;pressure_sealevel;temperature;humidity
8280;BME280;8335;42.646;23.380;2023-05-28T00:00:17;145319.31;;;15.16;100.00
8280;BME280;8335;42.646;23.380;2023-05-28T00:02:43;145326.78;;;15.19;100.00
8280;BME280;8335;42.646;23.380;2023-05-28T00:05:10;145328.00;;;15.20;100.00
8280;BME280;8335;42.646;23.380;2023-05-28T00:07:37;145328.00;;;15.20;100.00
8280;BME280;8335;42.646;23.380;2023-05-28T00:10:09;145320.56;;;15.17;100.00
8280;BME280;8335;42.646;23.380;2023-05-28T00:12:36;145331.75;;;15.21;100.00
8280;BME280;8335;42.646;23.380;2023-05-28T00:15:03;145328.00;;;15.20;100.00
8280;BME280;8335;42.646;23.380;2023-05-28T00:17:31;145330.50;;;15.21;100.00
8280;BME280;8335;42.646;23.380;2023-05-28T00:19:58;145330.50;;;15.21;100.00
8280;BME280;8335;42.646;23.380;2023-05-28T00:22:24;145334.28;;;15.22;100.00
8280;BME280;8335;42.646;23.380;2023-05-28T00:24:51;145345.47;;;15.27;100.00
8280;BME280;8335;42.646;23.380;2023-05-28T00:27:19;145347.97;;;15.28;100.00
8280;BME280;8335;42.646;23.380;2023-05-28T00:29:46;145346.72;;;15.27;100.00
8280;BME280;8335;42.646;23.380;2023-05-28T00:32:13;145336.78;;;15.23;100.00
8280;BME280;8335;42.646;23.380;2023-05-28T00:34:39;145335.53;;;15.23;100.00
8280;BME280;8335;42.646;23.380;2023-05-28T00:37:06;145333.03;;;15.22;100.00
8280;BME280;8335;42.646;23.380;2023-05-28T00:39:33;145290.59;;;15.04;100.00
8280;BME280;8335;42.646;23.380;2023-05-28T00:42:00;145324.28;;;15.18;100.00
8280;BME280;8335;42.646;23.380;2023-05-28T00:44:29;145318.06;;;15.16;100.00
8280;BME280;8335;42.646;23.380;2023-05-28T00:46:56;145318.06;;;15.16;100.00
8280;BME280;8335;42.646;23.380;2023-05-28T00:49:23;145315.56;;;15.14;100.00
8280;BME280;8335;42.646;23.380;2023-05-28T00:51:51;145306.81;;;15.11;100.00
8280;BME280;8335;42.646;23.380;2023-05-28T00:54:20;145309.31;;;15.12;100.00
8280;BME280;8335;42.646;23.380;2023-05-28T00:56:47;145313.03;;;15.13;100.00
8280;BME280;8335;42.646;23.380;2023-05-28T00:59:14;145294.31;;;15.06;100.00
8280;BME280;8335;42.646;23.380;2023-05-28T01:01:43;145286.88;;;15.03;100.00
8280;BME280;8335;42.646;23.380;2023-05-28T01:04:10;145275.63;;;14.98;100.00
8280;BME280;8335;42.646;23.380;2023-05-28T01:06:37;145266.91;;;14.95;100.00
8280;BME280;8335;42.646;23.380;2023-05-28T01:09:05;145255.66;;;14.90;100.00
8280;BME280;8335;42.646;23.380;2023-05-28T01:11:32;145246.97;;;14.86;100.00
8280;BME280;8335;42.646;23.380;2023-05-28T01:13:59;145220.75;;;14.76;100.00
8280;BME280;8335;42.646;23.380;2023-05-28T01:16:26;145219.50;;;14.75;100.00
8280;BME280;8335;42.646;23.380;2023-05-28T01:18:55;145194.56;;;14.65;100.00
8280;BME280;8335;42.646;23.380;2023-05-28T01:21:23;145160.91;;;14.51;100.00
8280;BME280;8335;42.646;23.380;2023-05-28T01:23:56;145162.16;;;14.52;100.00
8280;BME280;8335;42.646;23.380;2023-05-28T01:26:24;145154.63;;;14.49;100.00
8280;BME280;8335;42.646;23.380;2023-05-28T01:28:51;145168.38;;;14.54;100.00
8280;BME280;8335;42.646;23.380;2023-05-28T01:31:19;145172.09;;;14.56;100.00
8280;BME280;8335;42.646;23.380;2023-05-28T01:33:45;145173.34;;;14.56;100.00
8280;BME280;8335;42.646;23.380;2023-05-28T01:36:16;145180.84;;;14.59;100.00
8280;BME280;8335;42.646;23.380;2023-05-28T01:38:46;145189.56;;;14.63;100.00
8280;BME280;8335;42.646;23.380;2023-05-28T01:41:15;145185.81;;;14.62;100.00
8280;BME280;8335;42.646;23.380;2023-05-28T01:43:42;145182.09;;;14.60;100.00
8280;BME280;8335;42.646;23.380;2023-05-28T01:46:11;145193.34;;;14.65;100.00
8280;BME280;8335;42.646;23.380;2023-05-28T01:48:39;145184.56;;;14.61;100.00
8280;BME280;8335;42.646;23.380;2023-05-28T01:51:06;145145.88;;;14.45;100.00
8280;BME280;8335;42.646;23.380;2023-05-28T01:53:32;145179.59;;;14.59;100.00
8280;BME280;8335;42.646;23.380;2023-05-28T01:55:59;145178.38;;;14.58;100.00
8280;BME280;8335;42.646;23.380;2023-05-28T01:58:28;145174.59;;;14.57;100.00
8280;BME280;8335;42.646;23.380;2023-05-28T02:01:03;145143.41;;;14.44;100.00
8280;BME280;8335;42.646;23.380;2023-05-28T02:03:34;145165.88;;;14.53;100.00
8280;BME280;8335;42.646;23.380;2023-05-28T02:06:01;145157.13;;;14.50;100.00
8280;BME280;8335;42.646;23.380;2023-05-28T02:08:27;145160.91;;;14.51;100.00
8280;BME280;8335;42.646;23.380;2023-05-28T02:10:54;145165.88;;;14.53;100.00
8280;BME280;8335;42.646;23.380;2023-05-28T02:13:21;145154.63;;;14.49;100.00
8280;BME280;8335;42.646;23.380;2023-05-28T02:15:49;145155.88;;;14.49;100.00
8280;BME280;8335;42.646;23.380;2023-05-28T02:18:16;145155.88;;;14.49;100.00
8280;BME280;8335;42.646;23.380;2023-05-28T02:20:43;145149.66;;;14.47;100.00
8280;BME280;8335;42.646;23.380;2023-05-28T02:23:09;145139.63;;;14.43;100.00
8280;BME280;8335;42.646;23.380;2023-05-28T02:25:36;145145.88;;;14.45;100.00
8280;BME280;8335;42.646;23.380;2023-05-28T02:28:03;145147.19;;;14.46;100.00
8280;BME280;8335;42.646;23.380;2023-05-28T02:30:29;145127.19;;;14.38;100.00
8280;BME280;8335;42.646;23.380;2023-05-28T02:32:58;145135.88;;;14.41;100.00
8280;BME280;8335;42.646;23.380;2023-05-28T02:35:24;145115.94;;;14.33;100.00
8280;BME280;8335;42.646;23.380;2023-05-28T02:37:51;145162.16;;;14.52;100.00
8280;BME280;8335;42.646;23.380;2023-05-28T02:40:18;145178.38;;;14.58;100.00
8280;BME280;8335;42.646;23.380;2023-05-28T02:42:44;145180.84;;;14.59;100.00
8280;BME280;8335;42.646;23.380;2023-05-28T02:45:11;145182.09;;;14.60;100.00
8280;BME280;8335;42.646;23.380;2023-05-28T02:47:38;145177.13;;;14.58;100.00
8280;BME280;8335;42.646;23.380;2023-05-28T02:50:07;145172.09;;;14.56;100.00
8280;BME280;8335;42.646;23.380;2023-05-28T02:52:34;145177.13;;;14.58;100.00
8280;BME280;8335;42.646;23.380;2023-05-28T02:55:00;145178.38;;;14.58;100.00
8280;BME280;8335;42.646;23.380;2023-05-28T02:57:27;145169.59;;;14.55;100.00
8280;BME280;8335;42.646;23.380;2023-05-28T02:59:54;145167.13;;;14.54;100.00
8280;BME280;8335;42.646;23.380;2023-05-28T03:02:21;145184.56;;;14.61;100.00
8280;BME280;8335;42.646;23.380;2023-05-28T03:04:47;145179.59;;;14.59;100.00
8280;BME280;8335;42.646;23.380;2023-05-28T03:07:15;145187.06;;;14.62;100.00
8280;BME280;8335;42.646;23.380;2023-05-28T03:09:42;145200.78;;;14.68;100.00
8280;BME280;8335;42.646;23.380;2023-05-28T03:12:09;145209.50;;;14.71;100.00
8280;BME280;8335;42.646;23.380;2023-05-28T03:14:35;145205.78;;;14.70;100.00
8280;BME280;8335;42.646;23.380;2023-05-28T03:17:02;145213.28;;;14.73;100.00
8280;BME280;8335;42.646;23.380;2023-05-28T03:19:29;145213.28;;;14.73;100.00
8280;BME280;8335;42.646;23.380;2023-05-28T03:21:56;145220.75;;;14.76;100.00
8280;BME280;8335;42.646;23.380;2023-05-28T03:24:24;145226.97;;;14.78;100.00
8280;BME280;8335;42.646;23.380;2023-05-28T03:26:51;145231.97;;;14.80;100.00
8280;BME280;8335;42.646;23.380;2023-05-28T03:29:17;145226.97;;;14.78;100.00
8280;BME280;8335;42.646;23.380;2023-05-28T03:31:45;145225.72;;;14.78;100.00
8280;BME280;8335;42.646;23.380;2023-05-28T03:34:12;145230.75;;;14.80;100.00
8280;BME280;8335;42.646;23.380;2023-05-28T03:36:39;145225.72;;;14.78;100.00
8280;BME280;8335;42.646;23.380;2023-05-28T03:39:07;145219.50;;;14.75;100.00
8280;BME280;8335;42.646;23.380;2023-05-28T03:41:36;145212.03;;;14.72;100.00
8280;BME280;8335;42.646;23.380;2023-05-28T03:44:03;145214.53;;;14.73;100.00
8280;BME280;8335;42.646;23.380;2023-05-28T03:46:30;145219.50;;;14.75;100.00
8280;BME280;8335;42.646;23.380;2023-05-28T03:48:57;145187.06;;;14.62;100.00
8280;BME280;8335;42.646;23.380;2023-05-28T03:51:24;145244.41;;;14.85;100.00
8280;BME280;8335;42.646;23.380;2023-05-28T03:53:52;145251.94;;;14.89;100.00
8280;BME280;8335;42.646;23.380;2023-05-28T03:56:18;145260.63;;;14.92;100.00
8280;BME280;8335;42.646;23.380;2023-05-28T03:58:47;145256.91;;;14.91;100.00
8280;BME280;8335;42.646;23.380;2023-05-28T04:01:13;145276.88;;;14.99;100.00
8280;BME280;8335;42.646;23.380;2023-05-28T04:03:40;145280.63;;;15.00;100.00
8280;BME280;8335;42.646;23.380;2023-05-28T04:06:07;145289.34;;;15.04;100.00
8280;BME280;8335;42.646;23.380;2023-05-28T04:08:34;145296.81;;;15.07;100.00
8280;BME280;8335;42.646;23.380;2023-05-28T04:11:01;145301.84;;;15.09;100.00
8280;BME280;8335;42.646;23.380;2023-05-28T04:13:27;145310.53;;;15.12;100.00
8280;BME280;8335;42.646;23.380;2023-05-28T04:15:56;145306.81;;;15.11;100.00
8280;BME280;8335;42.646;23.380;2023-05-28T04:18:22;145311.78;;;15.13;100.00
8280;BME280;8335;42.646;23.380;2023-05-28T04:20:50;145315.56;;;15.14;100.00
8280;BME280;8335;42.646;23.380;2023-05-28T04:23:16;145318.06;;;15.16;100.00
8280;BME280;8335;42.646;23.380;2023-05-28T04:25:43;145333.03;;;15.22;100.00
8280;BME280;8335;42.646;23.380;2023-05-28T04:28:10;145350.50;;;15.29;100.00
8280;BME280;8335;42.646;23.380;2023-05-28T04:30:37;145353.00;;;15.30;100.00
8280;BME280;8335;42.646;23.380;2023-05-28T04:33:05;145360.47;;;15.33;100.00
8280;BME280;8335;42.646;23.380;2023-05-28T04:35:32;145371.72;;;15.37;100.00
8280;BME280;8335;42.646;23.380;2023-05-28T04:37:59;145386.69;;;15.44;100.00
8280;BME280;8335;42.646;23.380;2023-05-28T04:40:26;145395.41;;;15.47;100.00
8280;BME280;8335;42.646;23.380;2023-05-28T04:42:53;145385.44;;;15.43;100.00
8280;BME280;8335;42.646;23.380;2023-05-28T04:45:21;145402.91;;;15.50;100.00
8280;BME280;8335;42.646;23.380;2023-05-28T04:47:48;145415.38;;;15.55;100.00
8280;BME280;8335;42.646;23.380;2023-05-28T04:50:17;145406.66;;;15.52;100.00
8280;BME280;8335;42.646;23.380;2023-05-28T04:52:44;145435.38;;;15.63;100.00
8280;BME280;8335;42.646;23.380;2023-05-28T04:55:10;145449.13;;;15.69;100.00
8280;BME280;8335;42.646;23.380;2023-05-28T04:57:38;145461.59;;;15.74;100.00
8280;BME280;8335;42.646;23.380;2023-05-28T05:00:07;145472.81;;;15.79;100.00
8280;BME280;8335;42.646;23.380;2023-05-28T05:02:38;145497.81;;;15.89;100.00
8280;BME280;8335;42.646;23.380;2023-05-28T05:05:06;145512.78;;;15.95;100.00
8280;BME280;8335;42.646;23.380;2023-05-28T05:07:34;145531.50;;;16.03;100.00
8280;BME280;8335;42.646;23.380;2023-05-28T05:10:02;145549.00;;;16.10;100.00
8280;BME280;8335;42.646;23.380;2023-05-28T05:12:28;145570.22;;;16.18;100.00
8280;BME280;8335;42.646;23.380;2023-05-28T05:14:55;145575.19;;;16.20;100.00
8280;BME280;8335;42.646;23.380;2023-05-28T05:17:22;145575.19;;;16.20;100.00
8280;BME280;8335;42.646;23.380;2023-05-28T05:19:49;145590.19;;;16.27;100.00
8280;BME280;8335;42.646;23.380;2023-05-28T05:22:15;145600.19;;;16.31;100.00
8280;BME280;8335;42.646;23.380;2023-05-28T05:24:46;145605.16;;;16.33;100.00
8280;BME280;8335;42.646;23.380;2023-05-28T05:27:13;145616.44;;;16.37;100.00
8280;BME280;8335;42.646;23.380;2023-05-28T05:29:39;145621.41;;;16.39;100.00
8280;BME280;8335;42.646;23.380;2023-05-28T05:32:06;145628.88;;;16.42;100.00
8280;BME280;8335;42.646;23.380;2023-05-28T05:34:33;145660.13;;;16.55;100.00
8280;BME280;8335;42.646;23.380;2023-05-28T05:37:00;145683.88;;;16.65;100.00
8280;BME280;8335;42.646;23.380;2023-05-28T05:39:27;145708.88;;;16.75;100.00
8280;BME280;8335;42.646;23.380;2023-05-28T05:41:55;145732.59;;;16.85;100.00
8280;BME280;8335;42.646;23.380;2023-05-28T05:44:22;145755.13;;;16.94;100.00
8280;BME280;8335;42.646;23.380;2023-05-28T05:46:49;145771.38;;;17.00;100.00
8280;BME280;8335;42.646;23.380;2023-05-28T05:49:16;145782.56;;;17.05;100.00
8280;BME280;8335;42.646;23.380;2023-05-28T05:51:42;145798.81;;;17.12;100.00
8280;BME280;8335;42.646;23.380;2023-05-28T05:54:09;145801.31;;;17.13;100.00
8280;BME280;8335;42.646;23.380;2023-05-28T05:56:36;145802.56;;;17.13;100.00
8280;BME280;8335;42.646;23.380;2023-05-28T05:59:04;145795.09;;;17.10;100.00
8280;BME280;8335;42.646;23.380;2023-05-28T06:01:31;145787.56;;;17.07;100.00
8280;BME280;8335;42.646;23.380;2023-05-28T06:03:58;145790.09;;;17.08;100.00
8280;BME280;8335;42.646;23.380;2023-05-28T06:06:25;145786.31;;;17.06;100.00
8280;BME280;8335;42.646;23.380;2023-05-28T06:08:52;145811.34;;;17.17;100.00
8280;BME280;8335;42.646;23.380;2023-05-28T06:11:19;145813.81;;;17.18;100.00
8280;BME280;8335;42.646;23.380;2023-05-28T06:13:47;145816.31;;;17.19;100.00
8280;BME280;8335;42.646;23.380;2023-05-28T06:16:15;145827.59;;;17.23;100.00
8280;BME280;8335;42.646;23.380;2023-05-28T06:18:42;145825.09;;;17.22;100.00
8280;BME280;8335;42.646;23.380;2023-05-28T06:21:09;145822.53;;;17.21;100.00
8280;BME280;8335;42.646;23.380;2023-05-28T06:23:35;145825.09;;;17.22;100.00
8280;BME280;8335;42.646;23.380;2023-05-28T06:26:03;145832.56;;;17.25;100.00
8280;BME280;8335;42.646;23.380;2023-05-28T06:28:30;145848.81;;;17.32;100.00
8280;BME280;8335;42.646;23.380;2023-05-28T06:30:57;145856.28;;;17.35;100.00
8280;BME280;8335;42.646;23.380;2023-05-28T06:33:25;145846.31;;;17.31;100.00
8280;BME280;8335;42.646;23.380;2023-05-28T06:35:52;145855.03;;;17.34;100.00
8280;BME280;8335;42.646;23.380;2023-05-28T06:38:19;145827.59;;;17.23;100.00
8280;BME280;8335;42.646;23.380;2023-05-28T06:40:46;145831.31;;;17.25;100.00
8280;BME280;8335;42.646;23.380;2023-05-28T06:43:13;145827.59;;;17.23;100.00
8280;BME280;8335;42.646;23.380;2023-05-28T06:45:40;145827.59;;;17.23;100.00
8280;BME280;8335;42.646;23.380;2023-05-28T06:48:06;145805.06;;;17.14;100.00
8280;BME280;8335;42.646;23.380;2023-05-28T06:50:34;145811.34;;;17.17;100.00
8280;BME280;8335;42.646;23.380;2023-05-28T06:53:01;145822.53;;;17.21;100.00
8280;BME280;8335;42.646;23.380;2023-05-28T06:55:28;145817.56;;;17.19;100.00
8280;BME280;8335;42.646;23.380;2023-05-28T06:57:55;145831.31;;;17.25;100.00
8280;BME280;8335;42.646;23.380;2023-05-28T07:00:21;145826.34;;;17.23;100.00
8280;BME280;8335;42.646;23.380;2023-05-28T07:02:49;145815.06;;;17.18;100.00
8280;BME280;8335;42.646;23.380;2023-05-28T07:05:16;145820.06;;;17.20;100.00
8280;BME280;8335;42.646;23.380;2023-05-28T07:07:45;145818.81;;;17.20;100.00
8280;BME280;8335;42.646;23.380;2023-05-28T07:10:11;145822.53;;;17.21;100.00
8280;BME280;8335;42.646;23.380;2023-05-28T07:12:38;145830.06;;;17.24;100.00
8280;BME280;8335;42.646;23.380;2023-05-28T07:15:06;145850.06;;;17.32;100.00
8280;BME280;8335;42.646;23.380;2023-05-28T07:17:34;145897.56;;;17.52;100.00
8280;BME280;8335;42.646;23.380;2023-05-28T07:20:00;146022.63;;;18.03;100.00
8280;BME280;8335;42.646;23.380;2023-05-28T07:22:29;146207.72;;;18.78;100.00
8280;BME280;8335;42.646;23.380;2023-05-28T07:24:57;146345.38;;;19.34;100.00
8280;BME280;8335;42.646;23.380;2023-05-28T07:27:24;146449.31;;;19.76;100.00
8280;BME280;8335;42.646;23.380;2023-05-28T07:29:51;146475.63;;;19.87;98.28
8280;BME280;8335;42.646;23.380;2023-05-28T07:32:17;146466.84;;;19.84;97.71
8280;BME280;8335;42.646;23.380;2023-05-28T07:34:44;146426.81;;;19.67;97.37
8280;BME280;8335;42.646;23.380;2023-05-28T07:37:11;146392.94;;;19.53;96.77
8280;BME280;8335;42.646;23.380;2023-05-28T07:39:38;146391.72;;;19.53;97.65
8280;BME280;8335;42.646;23.380;2023-05-28T07:42:06;146364.16;;;19.42;98.41
8280;BME280;8335;42.646;23.380;2023-05-28T07:44:33;146297.84;;;19.15;99.45
8280;BME280;8335;42.646;23.380;2023-05-28T07:47:00;146279.03;;;19.07;100.00
8280;BME280;8335;42.646;23.380;2023-05-28T07:49:26;146275.31;;;19.06;100.00
8280;BME280;8335;42.646;23.380;2023-05-28T07:51:53;146210.28;;;18.79;98.71
8280;BME280;8335;42.646;23.380;2023-05-28T07:54:20;146214.00;;;18.81;100.00
8280;BME280;8335;42.646;23.380;2023-05-28T07:56:46;146257.78;;;18.98;99.37
8280;BME280;8335;42.646;23.380;2023-05-28T07:59:15;146320.38;;;19.24;100.00
8280;BME280;8335;42.646;23.380;2023-05-28T08:01:43;146390.47;;;19.52;98.38
8280;BME280;8335;42.646;23.380;2023-05-28T08:04:11;146385.47;;;19.50;96.64
8280;BME280;8335;42.646;23.380;2023-05-28T08:06:37;146375.44;;;19.46;96.08
8280;BME280;8335;42.646;23.380;2023-05-28T08:09:04;146327.84;;;19.27;95.30
8280;BME280;8335;42.646;23.380;2023-05-28T08:11:31;146214.00;;;18.81;96.77
8280;BME280;8335;42.646;23.380;2023-05-28T08:13:57;146110.16;;;18.38;99.17
8280;BME280;8335;42.646;23.380;2023-05-28T08:16:25;146036.38;;;18.08;100.00
8280;BME280;8335;42.646;23.380;2023-05-28T08:18:52;146042.59;;;18.11;100.00
8280;BME280;8335;42.646;23.380;2023-05-28T08:21:19;146130.16;;;18.47;100.00
8280;BME280;8335;42.646;23.380;2023-05-28T08:23:46;146270.31;;;19.04;98.53
8280;BME280;8335;42.646;23.380;2023-05-28T08:26:13;146548.25;;;20.17;96.22
8280;BME280;8335;42.646;23.380;2023-05-28T08:28:39;146825.22;;;21.29;87.94
8280;BME280;8335;42.646;23.380;2023-05-28T08:31:06;147050.88;;;22.21;83.13
8280;BME280;8335;42.646;23.380;2023-05-28T08:33:34;147108.59;;;22.44;81.30
8280;BME280;8335;42.646;23.380;2023-05-28T08:36:01;147088.56;;;22.36;81.08
8280;BME280;8335;42.646;23.380;2023-05-28T08:38:28;147053.44;;;22.22;80.24
8280;BME280;8335;42.646;23.380;2023-05-28T08:40:55;146968.13;;;21.87;81.27
8280;BME280;8335;42.646;23.380;2023-05-28T08:43:23;146811.38;;;21.24;83.40
8280;BME280;8335;42.646;23.380;2023-05-28T08:45:51;146692.31;;;20.75;85.59
8280;BME280;8335;42.646;23.380;2023-05-28T08:48:18;146679.78;;;20.70;86.75
8280;BME280;8335;42.646;23.380;2023-05-28T08:50:49;146688.59;;;20.74;84.83
8280;BME280;8335;42.646;23.380;2023-05-28T08:53:20;146741.19;;;20.95;84.73
8280;BME280;8335;42.646;23.380;2023-05-28T08:55:47;146758.75;;;21.02;84.07
8280;BME280;8335;42.646;23.380;2023-05-28T08:58:14;146772.53;;;21.08;82.76
8280;BME280;8335;42.646;23.380;2023-05-28T09:00:42;146795.09;;;21.17;82.83
8280;BME280;8335;42.646;23.380;2023-05-28T09:03:09;146823.91;;;21.29;81.67
8280;BME280;8335;42.646;23.380;2023-05-28T09:05:36;146802.56;;;21.20;81.50
8280;BME280;8335;42.646;23.380;2023-05-28T09:08:06;146879.09;;;21.51;80.59
8280;BME280;8335;42.646;23.380;2023-05-28T09:10:33;146929.22;;;21.71;79.81
8280;BME280;8335;42.646;23.380;2023-05-28T09:13:00;146936.75;;;21.75;80.76
8280;BME280;8335;42.646;23.380;2023-05-28T09:15:28;146922.97;;;21.69;78.27
8280;BME280;8335;42.646;23.380;2023-05-28T09:17:55;146849.00;;;21.39;79.22
8280;BME280;8335;42.646;23.380;2023-05-28T09:20:23;146778.78;;;21.10;81.67
8280;BME280;8335;42.646;23.380;2023-05-28T09:22:57;146674.78;;;20.68;83.44
8280;BME280;8335;42.646;23.380;2023-05-28T09:25:27;146558.25;;;20.21;85.89
8280;BME280;8335;42.646;23.380;2023-05-28T09:27:54;146505.66;;;19.99;87.46
8280;BME280;8335;42.646;23.380;2023-05-28T09:30:21;146375.44;;;19.46;87.56
8280;BME280;8335;42.646;23.380;2023-05-28T09:32:55;146255.28;;;18.97;91.36
8280;BME280;8335;42.646;23.380;2023-05-28T09:35:24;146151.41;;;18.55;93.39
8280;BME280;8335;42.646;23.380;2023-05-28T09:37:59;146168.91;;;18.62;93.95
8280;BME280;8335;42.646;23.380;2023-05-28T09:40:28;146167.66;;;18.62;94.39
8280;BME280;8335;42.646;23.380;2023-05-28T09:42:54;146197.75;;;18.74;94.17
8280;BME280;8335;42.646;23.380;2023-05-28T09:45:22;146150.16;;;18.55;94.59
8280;BME280;8335;42.646;23.380;2023-05-28T09:47:50;146096.38;;;18.33;96.47
8280;BME280;8335;42.646;23.380;2023-05-28T09:50:17;146032.59;;;18.07;96.88
8280;BME280;8335;42.646;23.380;2023-05-28T09:52:44;145988.84;;;17.89;99.62
8280;BME280;8335;42.646;23.380;2023-05-28T09:55:14;145910.03;;;17.57;99.03
8280;BME280;8335;42.646;23.380;2023-05-28T09:57:45;145855.03;;;17.34;100.00
8280;BME280;8335;42.646;23.380;2023-05-28T10:00:17;145855.03;;;17.34;100.00
8280;BME280;8335;42.646;23.380;2023-05-28T10:02:55;145857.53;;;17.36;100.00
8280;BME280;8335;42.646;23.380;2023-05-28T10:05:28;145868.81;;;17.40;100.00
8280;BME280;8335;42.646;23.380;2023-05-28T10:07:57;145883.81;;;17.46;100.00
8280;BME280;8335;42.646;23.380;2023-05-28T10:10:27;145907.53;;;17.56;100.00
8280;BME280;8335;42.646;23.380;2023-05-28T10:12:57;145950.09;;;17.73;100.00
8280;BME280;8335;42.646;23.380;2023-05-28T10:15:24;145988.84;;;17.89;100.00
8280;BME280;8335;42.646;23.380;2023-05-28T10:17:52;146036.38;;;18.08;99.89
8280;BME280;8335;42.646;23.380;2023-05-28T10:20:19;146050.09;;;18.14;97.37
8280;BME280;8335;42.646;23.380;2023-05-28T10:22:46;146075.13;;;18.24;97.92
8280;BME280;8335;42.646;23.380;2023-05-28T10:25:14;146131.41;;;18.47;95.42
8280;BME280;8335;42.646;23.380;2023-05-28T10:27:44;146162.69;;;18.60;95.79
8280;BME280;8335;42.646;23.380;2023-05-28T10:30:30;146176.44;;;18.65;96.62
8280;BME280;8335;42.646;23.380;2023-05-28T10:32:57;146191.47;;;18.72;96.40
8280;BME280;8335;42.646;23.380;2023-05-28T10:35:24;146093.88;;;18.32;96.86
8280;BME280;8335;42.646;23.380;2023-05-28T10:38:02;146071.38;;;18.23;96.15
8280;BME280;8335;42.646;23.380;2023-05-28T10:40:29;146052.63;;;18.15;98.08
8280;BME280;8335;42.646;23.380;2023-05-28T10:42:55;146033.88;;;18.07;96.83
8280;BME280;8335;42.646;23.380;2023-05-28T10:45:34;146020.13;;;18.02;96.87
8280;BME280;8335;42.646;23.380;2023-05-28T10:48:01;146028.84;;;18.05;97.29
8280;BME280;8335;42.646;23.380;2023-05-28T10:50:28;146042.59;;;18.11;98.35
8280;BME280;8335;42.646;23.380;2023-05-28T10:53:05;146098.88;;;18.34;97.56
8280;BME280;8335;42.646;23.380;2023-05-28T10:55:48;146155.16;;;18.57;96.92
8280;BME280;8335;42.646;23.380;2023-05-28T10:58:29;146215.25;;;18.81;96.67
8280;BME280;8335;42.646;23.380;2023-05-28T11:01:19;146315.38;;;19.22;92.09
8280;BME280;8335;42.646;23.380;2023-05-28T11:03:52;146344.13;;;19.34;92.54
8280;BME280;8335;42.646;23.380;2023-05-28T11:06:19;146356.66;;;19.39;90.84
8280;BME280;8335;42.646;23.380;2023-05-28T11:08:47;146365.41;;;19.42;91.19
8280;BME280;8335;42.646;23.380;2023-05-28T11:11:16;146390.47;;;19.52;92.20
8280;BME280;8335;42.646;23.380;2023-05-28T11:13:43;146428.06;;;19.68;91.57
8280;BME280;8335;42.646;23.380;2023-05-28T11:16:12;146463.09;;;19.82;90.84
8280;BME280;8335;42.646;23.380;2023-05-28T11:18:59;146480.63;;;19.89;89.64
8280;BME280;8335;42.646;23.380;2023-05-28T11:21:26;146455.59;;;19.79;87.01
8280;BME280;8335;42.646;23.380;2023-05-28T11:23:59;146391.72;;;19.53;87.83
8280;BME280;8335;42.646;23.380;2023-05-28T11:26:25;146322.88;;;19.25;89.70
8280;BME280;8335;42.646;23.380;2023-05-28T11:28:53;146250.28;;;18.95;91.42
8280;BME280;8335;42.646;23.380;2023-05-28T11:31:21;146222.75;;;18.84;92.00
8280;BME280;8335;42.646;23.380;2023-05-28T11:33:48;146237.78;;;18.90;92.33
8280;BME280;8335;42.646;23.380;2023-05-28T11:36:15;146275.31;;;19.06;92.24
8280;BME280;8335;42.646;23.380;2023-05-28T11:38:42;146336.66;;;19.31;92.63
8280;BME280;8335;42.646;23.380;2023-05-28T11:41:09;146389.22;;;19.52;90.88
8280;BME280;8335;42.646;23.380;2023-05-28T11:43:35;146429.31;;;19.68;89.45
8280;BME280;8335;42.646;23.380;2023-05-28T11:46:04;146449.31;;;19.76;87.61
8280;BME280;8335;42.646;23.380;2023-05-28T11:48:36;146513.19;;;20.02;86.12
8280;BME280;8335;42.646;23.380;2023-05-28T11:51:03;146521.94;;;20.06;87.40
8280;BME280;8335;42.646;23.380;2023-05-28T11:53:39;146569.53;;;20.25;86.61
8280;BME280;8335;42.646;23.380;2023-05-28T11:56:06;146530.72;;;20.10;84.33
8280;BME280;8335;42.646;23.380;2023-05-28T11:58:34;146470.59;;;19.85;85.86
8280;BME280;8335;42.646;23.380;2023-05-28T12:01:03;146386.72;;;19.51;87.18
8280;BME280;8335;42.646;23.380;2023-05-28T12:03:30;146370.44;;;19.44;88.92
8280;BME280;8335;42.646;23.380;2023-05-28T12:05:58;146339.13;;;19.32;90.21
8280;BME280;8335;42.646;23.380;2023-05-28T12:08:26;146341.63;;;19.33;90.04
8280;BME280;8335;42.646;23.380;2023-05-28T12:10:58;146290.31;;;19.12;88.87
8280;BME280;8335;42.646;23.380;2023-05-28T12:13:30;146221.50;;;18.84;89.84
8280;BME280;8335;42.646;23.380;2023-05-28T12:16:05;146241.50;;;18.92;91.40
8280;BME280;8335;42.646;23.380;2023-05-28T12:18:31;146242.75;;;18.92;91.38
8280;BME280;8335;42.646;23.380;2023-05-28T12:21:00;146247.81;;;18.94;91.49
8280;BME280;8335;42.646;23.380;2023-05-28T12:23:26;146264.06;;;19.01;90.85
8280;BME280;8335;42.646;23.380;2023-05-28T12:25:54;146241.50;;;18.92;91.52
8280;BME280;8335;42.646;23.380;2023-05-28T12:28:21;146254.03;;;18.97;91.63
8280;BME280;8335;42.646;23.380;2023-05-28T12:30:50;146237.78;;;18.90;91.34
8280;BME280;8335;42.646;23.380;2023-05-28T12:33:18;146224.00;;;18.85;91.45
8280;BME280;8335;42.646;23.380;2023-05-28T12:35:45;146214.00;;;18.81;92.58
8280;BME280;8335;42.646;23.380;2023-05-28T12:38:14;146224.00;;;18.85;94.61
8280;BME280;8335;42.646;23.380;2023-05-28T12:40:41;146217.75;;;18.82;92.73
8280;BME280;8335;42.646;23.380;2023-05-28T12:43:07;146173.91;;;18.64;92.91
8280;BME280;8335;42.646;23.380;2023-05-28T12:45:34;146150.16;;;18.55;93.28
8280;BME280;8335;42.646;23.380;2023-05-28T12:48:02;146130.16;;;18.47;93.05
8280;BME280;8335;42.646;23.380;2023-05-28T12:50:28;146127.66;;;18.46;92.92
8280;BME280;8335;42.646;23.380;2023-05-28T12:52:55;146136.38;;;18.49;93.56
8280;BME280;8335;42.646;23.380;2023-05-28T12:55:23;146136.38;;;18.49;92.83